F\v Pico_da Lebre — EB7323 — position and weather

sailwx.info

Track history (hours):
 
Tides and Currents Weather Stations Pressure Air Temp Water Temp Dewpoint Dewpoint Depression Visibility Wind Speed Wind Dir Waves Ship Positions

F\v Pico_da Lebre

Last reported at 2018-May-09 18:31 UTC. Time now 2018-Jun-18 17:12 UTC.
Position N 43°41' W 007°36'.
Warning: this ship's position is 39 days out of date.

Length 13 m; draft 4 m.

Type: Fishing. MMSI: 224042970.

Date/timePositionNaut miles runAvg speedWind from/ knotsBaromVisibWave heightAir tempDewpointWater temp
2018-May-09 18:31N 43°41' W 007°36'0 0.0
2018-May-09 18:30N 43°41' W 007°36'1 2.6
2018-May-09 18:00N 43°42' W 007°36'4 7.3
2018-May-09 17:30N 43°46' W 007°35'4 7.4
2018-May-09 17:00N 43°49' W 007°33'4 6.5
2018-May-09 16:24N 43°53' W 007°32'0 0.3
2018-May-09 16:00N 43°53' W 007°32'0 0.5
2018-May-09 15:22N 43°53' W 007°33'0 0.6
2018-May-09 15:00N 43°53' W 007°33'0 0.5
2018-May-09 14:26N 43°53' W 007°33'0 0.5
2018-May-09 13:54N 43°53' W 007°34'0 0.6
2018-May-09 13:29N 43°53' W 007°34'0 0.6
2018-May-09 13:00N 43°53' W 007°34'1 1.5
2018-May-09 12:29N 43°53' W 007°35'0 0.3
2018-May-09 11:59N 43°53' W 007°35'0 0.6
2018-May-09 11:29N 43°53' W 007°35'0 0.3
2018-May-09 10:59N 43°53' W 007°35'1 1.6
2018-May-09 10:30N 43°53' W 007°36'0 0.5
2018-May-09 09:59N 43°53' W 007°36'0 0.6
2018-May-09 09:30N 43°53' W 007°36'0 0.5
2018-May-09 09:00N 43°53' W 007°37'0 0.5
2018-May-09 08:30N 43°53' W 007°37'1 1.3
2018-May-09 08:00N 43°53' W 007°38'0 0.4
2018-May-09 07:30N 43°52' W 007°38'0 0.2
2018-May-09 07:00N 43°52' W 007°38'0 0.2
2018-May-09 06:30N 43°53' W 007°38'0 0.4
2018-May-09 06:00N 43°53' W 007°38'0 0.5
2018-May-09 05:26N 43°53' W 007°37'0 0.6
2018-May-09 05:00N 43°53' W 007°37'1 2.3
2018-May-09 04:30N 43°53' W 007°36'1 1.9
2018-May-09 04:00N 43°53' W 007°34'1 2.1
2018-May-09 03:29N 43°53' W 007°33'1 1.2
2018-May-09 03:00N 43°53' W 007°32'2 4.1
2018-May-09 02:30N 43°52' W 007°35'4 7.1
2018-May-09 02:00N 43°52' W 007°40'25 0.8
2018-May-07 19:50N 43°56' W 008°14'24 7.0
2018-May-07 16:23N 43°55' W 007°41'3 7.2
2018-May-07 16:00N 43°55' W 007°37'3 6.3
2018-May-07 15:30N 43°55' W 007°32'0 0.2
2018-May-07 15:00N 43°55' W 007°33'0 0.5
2018-May-07 14:29N 43°55' W 007°33'0 0.6
2018-May-07 14:00N 43°55' W 007°33'0 0.6
2018-May-07 13:23N 43°55' W 007°34'1 0.5
2018-May-07 12:20N 43°55' W 007°35'0 0.5
2018-May-07 12:00N 43°55' W 007°35'0 0.6
2018-May-07 11:27N 43°55' W 007°35'0 0.2
2018-May-07 11:00N 43°55' W 007°35'0 0.6
2018-May-07 10:27N 43°55' W 007°36'0 0.3
2018-May-07 10:00N 43°55' W 007°36'0 0.4
2018-May-07 09:30N 43°55' W 007°36'0 0.4
2018-May-07 08:50N 43°55' W 007°37'0 0.6
2018-May-07 08:26N 43°55' W 007°37'0 0.3
2018-May-07 07:56N 43°55' W 007°37'1 2.7
2018-May-07 07:29N 43°54' W 007°36'0 0.4
2018-May-07 06:57N 43°55' W 007°36'0 0.4
2018-May-07 06:30N 43°55' W 007°36'0 0.5
2018-May-07 05:55N 43°55' W 007°36'0 0.2
2018-May-07 05:19N 43°55' W 007°36'1 1.4
2018-May-07 04:57N 43°55' W 007°37'1 2.2
2018-May-07 04:24N 43°55' W 007°35'1 1.4
2018-May-07 03:54N 43°55' W 007°34'1 2.0
2018-May-07 03:27N 43°55' W 007°33'2 4.3
2018-May-07 02:55N 43°53' W 007°33'1 2.8
2018-May-07 02:30N 43°52' W 007°34'4 7.2
2018-May-07 02:00N 43°48' W 007°35'3 7.0
2018-May-07 01:30N 43°45' W 007°35'4 7.3
2018-May-07 01:00N 43°41' W 007°36'1 1.2
2018-May-07 00:30N 43°41' W 007°36'0 0.0
2018-May-07 00:00N 43°41' W 007°36'0 0.0
2018-May-06 23:30N 43°41' W 007°36'0 0.0
2018-May-06 23:00N 43°41' W 007°36'0 0.0
2018-May-06 22:30N 43°41' W 007°36'0 0.0
2018-May-06 22:00N 43°41' W 007°36'  
2018-May-04 10:51N 43°41' W 007°36'  
2018-Apr-30 05:43N 43°41' W 007°36'0 1.9
2018-Apr-30 05:30N 43°41' W 007°36'3 6.8
2018-Apr-30 05:00N 43°44' W 007°36'4 7.1
2018-Apr-30 04:30N 43°47' W 007°39'7 7.2
2018-Apr-30 03:31N 43°48' W 007°49'0 7.8
2018-Apr-30 03:28N 43°48' W 007°49'  
Track history (hours):
 
Tides and Currents Weather Stations Pressure Air Temp Water Temp Dewpoint Dewpoint Depression Visibility Wind Speed Wind Dir Waves Ship Positions

F\v Pico_da Lebre

Last reported at 2018-May-09 18:31 UTC. Time now 2018-Jun-18 17:12 UTC.
Position N 43°41' W 007°36'.
Warning: this ship's position is 39 days out of date.

Length 13 m; draft 4 m.

Type: Fishing. MMSI: 224042970.

Date/timePositionNaut miles runAvg speedWind from/ knotsBaromVisibWave heightAir tempDewpointWater temp
2018-May-09 18:31N 43°41' W 007°36'0 0.0
2018-May-09 18:30N 43°41' W 007°36'1 2.6
2018-May-09 18:00N 43°42' W 007°36'4 7.3
2018-May-09 17:30N 43°46' W 007°35'4 7.4
2018-May-09 17:00N 43°49' W 007°33'4 6.5
2018-May-09 16:24N 43°53' W 007°32'0 0.3
2018-May-09 16:00N 43°53' W 007°32'0 0.5
2018-May-09 15:22N 43°53' W 007°33'0 0.6
2018-May-09 15:00N 43°53' W 007°33'0 0.5
2018-May-09 14:26N 43°53' W 007°33'0 0.5
2018-May-09 13:54N 43°53' W 007°34'0 0.6
2018-May-09 13:29N 43°53' W 007°34'0 0.6
2018-May-09 13:00N 43°53' W 007°34'1 1.5
2018-May-09 12:29N 43°53' W 007°35'0 0.3
2018-May-09 11:59N 43°53' W 007°35'0 0.6
2018-May-09 11:29N 43°53' W 007°35'0 0.3
2018-May-09 10:59N 43°53' W 007°35'1 1.6
2018-May-09 10:30N 43°53' W 007°36'0 0.5
2018-May-09 09:59N 43°53' W 007°36'0 0.6
2018-May-09 09:30N 43°53' W 007°36'0 0.5
2018-May-09 09:00N 43°53' W 007°37'0 0.5
2018-May-09 08:30N 43°53' W 007°37'1 1.3
2018-May-09 08:00N 43°53' W 007°38'0 0.4
2018-May-09 07:30N 43°52' W 007°38'0 0.2
2018-May-09 07:00N 43°52' W 007°38'0 0.2
2018-May-09 06:30N 43°53' W 007°38'0 0.4
2018-May-09 06:00N 43°53' W 007°38'0 0.5
2018-May-09 05:26N 43°53' W 007°37'0 0.6
2018-May-09 05:00N 43°53' W 007°37'1 2.3
2018-May-09 04:30N 43°53' W 007°36'1 1.9
2018-May-09 04:00N 43°53' W 007°34'1 2.1
2018-May-09 03:29N 43°53' W 007°33'1 1.2
2018-May-09 03:00N 43°53' W 007°32'2 4.1
2018-May-09 02:30N 43°52' W 007°35'4 7.1
2018-May-09 02:00N 43°52' W 007°40'25 0.8
2018-May-07 19:50N 43°56' W 008°14'24 7.0
2018-May-07 16:23N 43°55' W 007°41'3 7.2
2018-May-07 16:00N 43°55' W 007°37'3 6.3
2018-May-07 15:30N 43°55' W 007°32'0 0.2
2018-May-07 15:00N 43°55' W 007°33'0 0.5
2018-May-07 14:29N 43°55' W 007°33'0 0.6
2018-May-07 14:00N 43°55' W 007°33'0 0.6
2018-May-07 13:23N 43°55' W 007°34'1 0.5
2018-May-07 12:20N 43°55' W 007°35'0 0.5
2018-May-07 12:00N 43°55' W 007°35'0 0.6
2018-May-07 11:27N 43°55' W 007°35'0 0.2
2018-May-07 11:00N 43°55' W 007°35'0 0.6
2018-May-07 10:27N 43°55' W 007°36'0 0.3
2018-May-07 10:00N 43°55' W 007°36'0 0.4
2018-May-07 09:30N 43°55' W 007°36'0 0.4
2018-May-07 08:50N 43°55' W 007°37'0 0.6
2018-May-07 08:26N 43°55' W 007°37'0 0.3
2018-May-07 07:56N 43°55' W 007°37'1 2.7
2018-May-07 07:29N 43°54' W 007°36'0 0.4
2018-May-07 06:57N 43°55' W 007°36'0 0.4
2018-May-07 06:30N 43°55' W 007°36'0 0.5
2018-May-07 05:55N 43°55' W 007°36'0 0.2
2018-May-07 05:19N 43°55' W 007°36'1 1.4
2018-May-07 04:57N 43°55' W 007°37'1 2.2
2018-May-07 04:24N 43°55' W 007°35'1 1.4
2018-May-07 03:54N 43°55' W 007°34'1 2.0
2018-May-07 03:27N 43°55' W 007°33'2 4.3
2018-May-07 02:55N 43°53' W 007°33'1 2.8
2018-May-07 02:30N 43°52' W 007°34'4 7.2
2018-May-07 02:00N 43°48' W 007°35'3 7.0
2018-May-07 01:30N 43°45' W 007°35'4 7.3
2018-May-07 01:00N 43°41' W 007°36'1 1.2
2018-May-07 00:30N 43°41' W 007°36'0 0.0
2018-May-07 00:00N 43°41' W 007°36'0 0.0
2018-May-06 23:30N 43°41' W 007°36'0 0.0
2018-May-06 23:00N 43°41' W 007°36'0 0.0
2018-May-06 22:30N 43°41' W 007°36'0 0.0
2018-May-06 22:00N 43°41' W 007°36'  
2018-May-04 10:51N 43°41' W 007°36'  
2018-Apr-30 05:43N 43°41' W 007°36'0 1.9
2018-Apr-30 05:30N 43°41' W 007°36'3 6.8
2018-Apr-30 05:00N 43°44' W 007°36'4 7.1
2018-Apr-30 04:30N 43°47' W 007°39'7 7.2
2018-Apr-30 03:31N 43°48' W 007°49'0 7.8
2018-Apr-30 03:28N 43°48' W 007°49'  

Dump ship's entire track history